createdAt,value
2023-05-19T00:01:22.703Z,61.23
2023-05-19T00:03:53.720Z,60.77
2023-05-19T00:06:25.079Z,60.40
2023-05-19T00:09:01.794Z,60.84
2023-05-19T00:11:29.204Z,61.21
2023-05-19T00:13:57.164Z,60.92
2023-05-19T00:16:24.602Z,59.78
2023-05-19T00:18:51.819Z,60.62
2023-05-19T00:21:19.053Z,60.57
2023-05-19T00:23:45.685Z,62.93
2023-05-19T00:26:12.382Z,61.31
2023-05-19T00:28:46.079Z,61.44
2023-05-19T00:31:12.938Z,61.52
2023-05-19T00:33:39.548Z,62.41
2023-05-19T00:36:06.424Z,62.18
2023-05-19T00:38:36.581Z,62.01
2023-05-19T00:41:03.984Z,61.55
2023-05-19T00:43:30.692Z,62.20
2023-05-19T00:45:57.947Z,61.66
2023-05-19T00:48:27.778Z,61.70
2023-05-19T00:50:56.356Z,60.84
2023-05-19T00:53:23.320Z,61.31
2023-05-19T00:55:50.548Z,60.41
2023-05-19T00:58:17.189Z,60.26
2023-05-19T01:00:44.422Z,60.71
2023-05-19T01:03:11.786Z,60.92
2023-05-19T01:05:44.834Z,60.20
2023-05-19T01:08:11.911Z,60.44
2023-05-19T01:10:38.500Z,60.48
2023-05-19T01:13:05.890Z,60.35
2023-05-19T01:15:38.639Z,61.84
2023-05-19T01:18:08.340Z,61.91
2023-05-19T01:20:41.382Z,61.77
2023-05-19T01:23:15.318Z,61.39
2023-05-19T01:26:00.916Z,61.85
2023-05-19T01:28:33.676Z,62.58
2023-05-19T01:31:01.174Z,62.49
2023-05-19T01:33:30.182Z,62.13
2023-05-19T01:35:58.024Z,61.66
2023-05-19T01:38:28.344Z,62.20
2023-05-19T01:40:56.289Z,62.34
2023-05-19T01:43:26.772Z,61.35
2023-05-19T01:45:53.594Z,61.33
2023-05-19T01:48:24.836Z,61.79
2023-05-19T01:50:51.658Z,62.28
2023-05-19T01:53:18.258Z,63.02
2023-05-19T01:55:50.090Z,62.12
2023-05-19T01:58:37.866Z,62.61
2023-05-19T02:01:10.791Z,63.55
2023-05-19T02:03:40.953Z,61.92
2023-05-19T02:06:26.808Z,62.48
2023-05-19T02:09:06.913Z,63.41
2023-05-19T02:11:35.965Z,63.86
2023-05-19T02:14:03.471Z,63.09
2023-05-19T02:16:30.485Z,64.17
2023-05-19T02:18:59.298Z,64.55
2023-05-19T02:21:26.774Z,64.57
2023-05-19T02:23:54.857Z,63.70
2023-05-19T02:26:21.752Z,62.66
2023-05-19T02:28:48.304Z,64.22
2023-05-19T02:31:15.107Z,64.05
2023-05-19T02:33:43.053Z,64.18
2023-05-19T02:36:10.161Z,64.42
2023-05-19T02:38:39.751Z,65.05
2023-05-19T02:41:08.681Z,64.31
2023-05-19T02:43:35.513Z,64.50
2023-05-19T02:46:02.269Z,65.39
2023-05-19T02:48:31.866Z,66.63
2023-05-19T02:50:58.519Z,65.42
2023-05-19T02:53:25.191Z,65.23
2023-05-19T02:55:54.112Z,65.58
2023-05-19T02:58:20.887Z,65.00
2023-05-19T03:00:48.019Z,64.93
2023-05-19T03:03:15.136Z,64.71
2023-05-19T03:05:42.877Z,63.96
2023-05-19T03:08:09.514Z,64.39
2023-05-19T03:10:36.393Z,64.88
2023-05-19T03:13:03.060Z,64.42
2023-05-19T03:15:30.712Z,64.38
2023-05-19T03:17:57.452Z,63.75
2023-05-19T03:20:24.653Z,62.16
2023-05-19T03:22:54.448Z,64.00
2023-05-19T03:25:21.265Z,63.99
2023-05-19T03:27:47.844Z,63.97
2023-05-19T03:30:14.743Z,64.94
2023-05-19T03:32:55.928Z,66.12
2023-05-19T03:35:24.990Z,65.89
2023-05-19T03:37:51.594Z,67.11
2023-05-19T03:40:19.011Z,66.03
2023-05-19T03:42:46.182Z,66.53
2023-05-19T03:45:13.711Z,65.17
2023-05-19T03:47:41.316Z,65.09
2023-05-19T03:50:29.196Z,66.01
2023-05-19T03:53:01.842Z,64.97
2023-05-19T03:55:32.053Z,65.69
2023-05-19T03:57:58.695Z,66.24
2023-05-19T04:00:25.405Z,65.72
2023-05-19T04:02:54.495Z,65.59
2023-05-19T04:05:21.224Z,65.72
2023-05-19T04:07:47.952Z,65.45
2023-05-19T04:10:14.587Z,65.83
2023-05-19T04:12:41.347Z,65.43
2023-05-19T04:15:11.560Z,66.10
2023-05-19T04:17:38.456Z,66.53
2023-05-19T04:20:08.069Z,66.74
2023-05-19T04:22:36.905Z,66.27
2023-05-19T04:25:05.242Z,66.20
2023-05-19T04:27:32.167Z,65.98
2023-05-19T04:30:01.293Z,66.36
2023-05-19T04:32:29.392Z,65.08
2023-05-19T04:34:58.938Z,64.47
2023-05-19T04:37:30.054Z,65.86
2023-05-19T04:39:57.477Z,67.16
2023-05-19T04:42:26.259Z,68.07
2023-05-19T04:44:54.256Z,66.81
2023-05-19T04:47:28.220Z,66.88
2023-05-19T04:49:55.811Z,66.43
2023-05-19T04:52:22.790Z,66.54
2023-05-19T04:54:50.709Z,65.66
2023-05-19T04:57:17.445Z,66.90
2023-05-19T04:59:46.206Z,65.18
2023-05-19T05:02:12.931Z,65.59
2023-05-19T05:04:42.718Z,65.10
2023-05-19T05:07:09.985Z,63.91
2023-05-19T05:09:37.632Z,63.65
2023-05-19T05:12:04.704Z,64.09
2023-05-19T05:14:31.454Z,64.75
2023-05-19T05:16:58.334Z,64.80
2023-05-19T05:19:26.044Z,65.44
2023-05-19T05:21:54.057Z,65.10
2023-05-19T05:24:21.092Z,64.17
2023-05-19T05:26:54.117Z,64.51
2023-05-19T05:29:21.280Z,62.86
2023-05-19T05:31:47.977Z,62.27
2023-05-19T05:34:16.935Z,61.66
2023-05-19T05:36:43.752Z,61.19
2023-05-19T05:39:10.519Z,60.51
2023-05-19T05:41:39.836Z,59.07
2023-05-19T05:44:10.771Z,57.90
2023-05-19T05:46:39.534Z,57.76
2023-05-19T05:49:09.030Z,57.20
2023-05-19T05:51:35.895Z,59.04
2023-05-19T05:54:03.077Z,57.39
2023-05-19T05:56:37.060Z,56.24
2023-05-19T05:59:07.826Z,57.03
2023-05-19T06:01:35.837Z,57.10
2023-05-19T06:04:04.763Z,55.54
2023-05-19T06:06:32.835Z,56.34
2023-05-19T06:09:01.428Z,56.02
2023-05-19T06:11:28.859Z,55.61
2023-05-19T06:13:58.385Z,56.60
2023-05-19T06:16:43.716Z,55.34
2023-05-19T06:19:11.057Z,55.71
2023-05-19T06:21:37.775Z,54.84
2023-05-19T06:24:04.597Z,54.95
2023-05-19T06:26:31.258Z,55.45
2023-05-19T06:28:57.984Z,53.86
2023-05-19T06:31:26.555Z,54.08
2023-05-19T06:33:56.129Z,54.50
2023-05-19T06:36:22.822Z,54.11
2023-05-19T06:38:49.693Z,53.56
2023-05-19T06:41:16.388Z,54.30
2023-05-19T06:43:43.168Z,55.27
2023-05-19T06:46:13.814Z,54.46
2023-05-19T06:48:40.686Z,55.19
2023-05-19T06:51:10.223Z,54.76
2023-05-19T06:53:39.801Z,55.09
2023-05-19T06:56:08.870Z,54.54
2023-05-19T06:58:39.493Z,54.58
2023-05-19T07:01:06.225Z,55.04
2023-05-19T07:03:39.262Z,55.17
2023-05-19T07:06:08.076Z,53.75
2023-05-19T07:08:37.363Z,52.75
2023-05-19T07:11:06.203Z,54.18
2023-05-19T07:13:33.093Z,53.01
2023-05-19T07:15:59.751Z,52.50
2023-05-19T07:18:31.938Z,53.59
2023-05-19T07:20:59.067Z,52.87
2023-05-19T07:23:28.127Z,53.17
2023-05-19T07:25:58.914Z,52.37
2023-05-19T07:28:25.703Z,52.08
2023-05-19T07:30:53.214Z,53.30
2023-05-19T07:33:19.876Z,53.12
2023-05-19T07:35:46.612Z,52.20
2023-05-19T07:38:13.909Z,52.56
2023-05-19T07:40:40.532Z,53.30
2023-05-19T07:43:07.178Z,53.17
2023-05-19T07:45:33.829Z,51.09
2023-05-19T07:48:00.689Z,50.28
2023-05-19T07:50:27.438Z,51.43
2023-05-19T07:52:54.119Z,51.10
2023-05-19T07:55:23.194Z,51.04
2023-05-19T07:57:50.881Z,50.87
2023-05-19T08:00:17.854Z,50.02
2023-05-19T08:02:44.904Z,50.65
2023-05-19T08:05:12.152Z,49.12
2023-05-19T08:07:38.939Z,49.29
2023-05-19T08:10:06.785Z,47.41
2023-05-19T08:12:33.445Z,48.47
2023-05-19T08:15:01.391Z,49.96
2023-05-19T08:17:30.792Z,47.63
2023-05-19T08:19:57.689Z,46.43
2023-05-19T08:22:24.428Z,45.27
2023-05-19T08:24:52.266Z,46.33
2023-05-19T08:27:18.930Z,47.78
2023-05-19T08:29:45.523Z,48.06
2023-05-19T08:32:13.398Z,46.47
2023-05-19T08:34:40.271Z,46.88
2023-05-19T08:37:07.611Z,46.83
2023-05-19T08:39:34.833Z,45.28
2023-05-19T08:42:02.460Z,45.53
2023-05-19T08:44:30.912Z,44.79
2023-05-19T08:47:00.764Z,45.85
2023-05-19T08:49:31.102Z,45.07
2023-05-19T08:52:17.224Z,45.49
2023-05-19T08:54:50.972Z,44.29
2023-05-19T08:57:18.007Z,44.19
2023-05-19T08:59:44.904Z,43.46
2023-05-19T09:02:13.237Z,43.40
2023-05-19T09:04:40.289Z,42.92
2023-05-19T09:07:07.039Z,44.05
2023-05-19T09:09:33.620Z,43.44
2023-05-19T09:12:00.285Z,43.31
2023-05-19T09:14:26.933Z,42.58
2023-05-19T09:16:54.082Z,42.29
2023-05-19T09:19:21.337Z,42.10
2023-05-19T09:21:57.991Z,42.28
2023-05-19T09:24:25.984Z,41.00
2023-05-19T09:26:55.228Z,41.75
2023-05-19T09:29:22.691Z,40.40
2023-05-19T09:31:53.880Z,41.51
2023-05-19T09:34:22.303Z,41.31
2023-05-19T09:36:54.945Z,42.37
2023-05-19T09:39:25.242Z,41.58
2023-05-19T09:41:55.359Z,40.19
2023-05-19T09:44:31.219Z,40.26
2023-05-19T09:46:58.760Z,41.26
2023-05-19T09:49:29.508Z,41.33
2023-05-19T09:51:56.844Z,41.43
2023-05-19T09:54:24.222Z,39.92
2023-05-19T09:56:57.582Z,39.90
2023-05-19T09:59:25.709Z,40.42
2023-05-19T10:01:56.867Z,40.10
2023-05-19T10:04:29.745Z,39.09
2023-05-19T10:06:59.860Z,39.76
2023-05-19T10:09:27.936Z,39.98
2023-05-19T10:11:55.836Z,39.41
2023-05-19T10:14:23.596Z,39.33
2023-05-19T10:16:54.210Z,37.80
2023-05-19T10:19:24.949Z,37.23
2023-05-19T10:21:52.445Z,38.78
2023-05-19T10:24:21.226Z,38.59
2023-05-19T10:27:01.513Z,38.61
2023-05-19T10:29:39.917Z,37.39
2023-05-19T10:32:18.803Z,36.38
2023-05-19T10:34:57.900Z,36.02
2023-05-19T10:37:57.044Z,35.76
2023-05-19T10:40:33.231Z,36.67
2023-05-19T10:43:02.805Z,37.02
2023-05-19T10:45:36.382Z,35.35
2023-05-19T10:48:03.249Z,35.57
2023-05-19T10:50:36.141Z,36.18
2023-05-19T10:53:02.785Z,35.72
2023-05-19T10:56:04.526Z,36.32
2023-05-19T10:58:37.229Z,34.12
2023-05-19T11:01:07.015Z,34.77
2023-05-19T11:03:43.325Z,32.87
2023-05-19T11:06:19.212Z,33.11
2023-05-19T11:08:47.861Z,33.74
2023-05-19T11:11:15.120Z,33.31
2023-05-19T11:13:43.585Z,34.54
2023-05-19T11:16:10.494Z,35.30
2023-05-19T11:18:38.408Z,33.74
2023-05-19T11:21:08.654Z,31.87
2023-05-19T11:23:38.228Z,30.51
2023-05-19T11:26:06.653Z,29.01
2023-05-19T11:28:33.516Z,27.71
2023-05-19T11:31:02.537Z,28.06
2023-05-19T11:33:30.072Z,28.14
2023-05-19T11:36:00.802Z,26.79
2023-05-19T11:38:28.564Z,28.50
2023-05-19T11:40:55.918Z,27.66
2023-05-19T11:43:23.764Z,28.28
2023-05-19T11:45:51.010Z,27.66
2023-05-19T11:48:20.635Z,27.15
2023-05-19T11:50:47.656Z,28.18
2023-05-19T11:53:15.298Z,29.16
2023-05-19T11:55:48.116Z,27.69
2023-05-19T11:58:15.228Z,27.60
2023-05-19T12:00:43.219Z,27.45
2023-05-19T12:03:10.188Z,26.44
2023-05-19T12:05:41.930Z,26.26
2023-05-19T12:08:10.355Z,24.97
2023-05-19T12:10:37.180Z,27.39
2023-05-19T12:13:06.292Z,29.29
2023-05-19T12:15:33.649Z,30.05
2023-05-19T12:18:03.591Z,30.47
2023-05-19T12:20:35.809Z,31.17
2023-05-19T12:23:03.143Z,30.31
2023-05-19T12:25:30.337Z,29.85
2023-05-19T12:28:00.997Z,28.99
2023-05-19T12:30:29.079Z,28.09
2023-05-19T12:32:57.815Z,27.64
2023-05-19T12:35:28.288Z,28.58
2023-05-19T12:37:55.123Z,30.36
2023-05-19T12:40:22.107Z,31.52
2023-05-19T12:42:49.869Z,32.22
2023-05-19T12:45:20.655Z,30.12
2023-05-19T12:47:48.369Z,28.47
2023-05-19T12:50:15.036Z,28.08
2023-05-19T12:52:42.838Z,29.17
2023-05-19T12:55:11.207Z,31.30
2023-05-19T12:57:38.737Z,30.25
2023-05-19T13:00:32.546Z,29.13
2023-05-19T13:03:00.919Z,30.70
2023-05-19T13:05:28.417Z,31.55
2023-05-19T13:07:59.073Z,32.83
2023-05-19T13:10:29.012Z,32.71
2023-05-19T13:12:56.218Z,33.96
2023-05-19T13:15:24.232Z,34.69
2023-05-19T13:17:51.054Z,34.66
2023-05-19T13:20:17.794Z,35.02
2023-05-19T13:22:44.582Z,34.77
2023-05-19T13:25:11.413Z,34.79
2023-05-19T13:27:38.063Z,35.06
2023-05-19T13:30:05.391Z,34.05
2023-05-19T13:32:33.632Z,34.40
2023-05-19T13:35:01.234Z,32.52
2023-05-19T13:37:28.444Z,31.86
2023-05-19T13:39:55.482Z,31.17
2023-05-19T13:42:22.267Z,30.71
2023-05-19T13:44:48.945Z,30.92
2023-05-19T13:47:15.887Z,30.59
2023-05-19T13:49:42.678Z,30.44
2023-05-19T13:52:09.396Z,31.45
2023-05-19T13:54:36.088Z,32.12
2023-05-19T13:57:02.714Z,32.93
2023-05-19T13:59:29.815Z,32.99
2023-05-19T14:01:56.556Z,33.57
2023-05-19T14:04:24.456Z,32.87
2023-05-19T14:06:51.228Z,33.28
2023-05-19T14:09:17.867Z,34.22
2023-05-19T14:11:44.562Z,34.81
2023-05-19T14:14:11.645Z,33.78
2023-05-19T14:16:38.828Z,33.41
2023-05-19T14:19:05.768Z,33.68
2023-05-19T14:21:32.797Z,34.18
2023-05-19T14:23:59.653Z,33.74
2023-05-19T14:26:28.079Z,31.96
2023-05-19T14:28:57.157Z,32.84
2023-05-19T14:31:26.870Z,32.68
2023-05-19T14:33:54.024Z,32.92
2023-05-19T14:36:20.780Z,32.60
2023-05-19T14:38:47.392Z,33.83
2023-05-19T14:41:14.045Z,34.20
2023-05-19T14:43:43.774Z,34.33
2023-05-19T14:46:10.508Z,34.87
2023-05-19T14:48:37.245Z,33.63
2023-05-19T14:51:03.957Z,32.57
2023-05-19T14:53:30.747Z,32.93
2023-05-19T14:55:57.354Z,34.00
2023-05-19T14:58:28.785Z,32.92
2023-05-19T15:00:57.571Z,32.61
2023-05-19T15:03:26.679Z,33.08
2023-05-19T15:05:53.463Z,32.01
2023-05-19T15:08:20.062Z,32.43
2023-05-19T15:10:50.013Z,33.38
2023-05-19T15:13:19.267Z,33.39
2023-05-19T15:15:46.094Z,32.12
2023-05-19T15:18:13.705Z,32.80
2023-05-19T15:20:40.444Z,33.05
2023-05-19T15:23:07.105Z,33.10
2023-05-19T15:25:33.729Z,32.41
2023-05-19T15:28:00.354Z,32.95
2023-05-19T15:30:26.912Z,33.49
2023-05-19T15:32:53.712Z,33.32
2023-05-19T15:35:20.407Z,34.45
2023-05-19T15:37:47.042Z,33.80
2023-05-19T15:40:13.724Z,34.13
2023-05-19T15:42:40.475Z,33.19
2023-05-19T15:45:08.190Z,33.87
2023-05-19T15:47:34.967Z,32.69
2023-05-19T15:50:01.588Z,33.59
2023-05-19T15:52:29.242Z,33.72
2023-05-19T15:54:59.027Z,34.16
2023-05-19T15:57:26.004Z,34.49
2023-05-19T15:59:52.842Z,34.52
2023-05-19T16:02:19.677Z,34.40
2023-05-19T16:04:46.529Z,35.16
2023-05-19T16:07:13.198Z,34.67
2023-05-19T16:09:42.322Z,34.61
2023-05-19T16:12:11.332Z,35.21
2023-05-19T16:14:37.930Z,34.48
2023-05-19T16:17:05.136Z,34.07
2023-05-19T16:19:31.970Z,35.38
2023-05-19T16:21:59.143Z,35.68
2023-05-19T16:24:25.939Z,34.97
2023-05-19T16:26:53.900Z,36.24
2023-05-19T16:29:20.622Z,36.31
2023-05-19T16:31:47.290Z,36.24
2023-05-19T16:34:14.063Z,34.99
2023-05-19T16:36:40.736Z,35.41
2023-05-19T16:39:07.409Z,36.02
2023-05-19T16:41:34.027Z,35.33
2023-05-19T16:44:02.258Z,36.17
2023-05-19T16:46:30.589Z,36.40
2023-05-19T16:48:57.939Z,36.13
2023-05-19T16:51:24.694Z,36.13
2023-05-19T16:53:53.654Z,35.23
2023-05-19T16:56:21.853Z,35.60
2023-05-19T16:58:49.381Z,36.16
2023-05-19T17:01:17.450Z,36.56
2023-05-19T17:03:44.152Z,35.67
2023-05-19T17:06:10.845Z,36.27
2023-05-19T17:08:37.528Z,36.62
2023-05-19T17:11:08.594Z,36.86
2023-05-19T17:13:36.503Z,36.89
2023-05-19T17:16:03.184Z,37.26
2023-05-19T17:18:31.291Z,36.94
2023-05-19T17:20:59.385Z,36.98
2023-05-19T17:23:26.118Z,36.55
2023-05-19T17:25:55.833Z,38.04
2023-05-19T17:28:22.501Z,38.07
2023-05-19T17:30:49.076Z,37.65
2023-05-19T17:33:15.746Z,38.06
2023-05-19T17:35:43.454Z,38.35
2023-05-19T17:38:10.083Z,38.07
2023-05-19T17:40:37.070Z,37.84
2023-05-19T17:43:03.873Z,37.36
2023-05-19T17:45:30.838Z,38.39
2023-05-19T17:47:59.901Z,37.87
2023-05-19T17:50:26.476Z,37.84
2023-05-19T17:52:53.394Z,38.21
2023-05-19T17:55:20.217Z,38.68
2023-05-19T17:57:48.024Z,38.21
2023-05-19T18:00:15.656Z,38.13
2023-05-19T18:02:42.458Z,37.80
2023-05-19T18:05:09.617Z,38.81
2023-05-19T18:07:39.481Z,38.97
2023-05-19T18:10:06.628Z,39.25
2023-05-19T18:12:33.219Z,39.33
2023-05-19T18:14:59.878Z,39.00
2023-05-19T18:17:26.598Z,38.97
2023-05-19T18:19:54.670Z,39.60
2023-05-19T18:22:21.332Z,40.08
2023-05-19T18:24:48.667Z,40.93
2023-05-19T18:27:15.362Z,40.57
2023-05-19T18:29:42.237Z,40.41
2023-05-19T18:32:09.243Z,40.59
2023-05-19T18:34:35.928Z,41.12
2023-05-19T18:37:02.593Z,41.26
2023-05-19T18:39:29.454Z,41.06
2023-05-19T18:41:58.429Z,41.36
2023-05-19T18:44:25.248Z,41.23
2023-05-19T18:46:51.935Z,41.60
2023-05-19T18:49:18.584Z,41.42
2023-05-19T18:51:48.433Z,42.14
2023-05-19T18:54:15.769Z,42.12
2023-05-19T18:56:42.448Z,42.43
2023-05-19T18:59:10.074Z,41.90
2023-05-19T19:01:36.727Z,42.46
2023-05-19T19:04:03.587Z,42.59
2023-05-19T19:06:31.275Z,42.30
2023-05-19T19:08:57.905Z,42.53
2023-05-19T19:11:24.459Z,42.66
2023-05-19T19:13:51.485Z,42.57
2023-05-19T19:16:18.340Z,42.10
2023-05-19T19:18:47.374Z,42.90
2023-05-19T19:21:14.078Z,43.19
2023-05-19T19:23:40.955Z,43.03
2023-05-19T19:26:09.273Z,43.15
2023-05-19T19:28:35.932Z,44.22
2023-05-19T19:31:02.680Z,43.99
2023-05-19T19:33:29.378Z,44.26
2023-05-19T19:35:56.141Z,43.50
2023-05-19T19:38:22.780Z,44.68
2023-05-19T19:40:51.009Z,45.64
2023-05-19T19:43:17.703Z,45.23
2023-05-19T19:45:44.265Z,44.86
2023-05-19T19:48:12.108Z,45.21
2023-05-19T19:50:38.888Z,44.91
2023-05-19T19:53:05.527Z,45.79
2023-05-19T19:55:32.385Z,46.97
2023-05-19T19:57:59.058Z,46.18
2023-05-19T20:00:25.676Z,46.39
2023-05-19T20:03:04.470Z,46.76
2023-05-19T20:05:32.474Z,46.46
2023-05-19T20:07:59.158Z,46.51
2023-05-19T20:10:25.830Z,47.65
2023-05-19T20:12:52.575Z,47.40
2023-05-19T20:15:19.182Z,47.13
2023-05-19T20:17:45.933Z,46.69
2023-05-19T20:20:12.850Z,46.67
2023-05-19T20:22:39.505Z,46.03
2023-05-19T20:25:06.442Z,46.43
2023-05-19T20:27:33.093Z,46.64
2023-05-19T20:29:59.838Z,47.28
2023-05-19T20:32:26.558Z,47.52
2023-05-19T20:34:53.367Z,47.77
2023-05-19T20:37:23.581Z,47.99
2023-05-19T20:39:51.556Z,48.20
2023-05-19T20:42:18.155Z,48.27
2023-05-19T20:44:44.915Z,48.05
2023-05-19T20:47:11.613Z,48.43
2023-05-19T20:49:38.327Z,48.10
2023-05-19T20:52:04.920Z,47.42
2023-05-19T20:54:31.508Z,48.66
2023-05-19T20:56:58.245Z,48.27
2023-05-19T20:59:24.883Z,47.51
2023-05-19T21:01:51.429Z,48.37
2023-05-19T21:04:19.396Z,48.69
2023-05-19T21:06:46.055Z,48.61
2023-05-19T21:09:12.792Z,48.58
2023-05-19T21:11:39.414Z,47.23
2023-05-19T21:14:06.614Z,48.39
2023-05-19T21:16:34.170Z,48.25
2023-05-19T21:19:01.952Z,48.52
2023-05-19T21:21:28.736Z,47.94
2023-05-19T21:23:55.376Z,48.50
2023-05-19T21:26:24.166Z,49.15
2023-05-19T21:28:51.163Z,49.04
2023-05-19T21:31:17.794Z,49.37
2023-05-19T21:33:44.730Z,49.28
2023-05-19T21:36:11.366Z,49.28
2023-05-19T21:38:38.017Z,49.57
2023-05-19T21:41:04.617Z,49.79
2023-05-19T21:43:31.265Z,49.27
2023-05-19T21:45:57.894Z,50.29
2023-05-19T21:48:24.608Z,49.77
2023-05-19T21:50:54.942Z,49.52
2023-05-19T21:53:23.758Z,49.95
2023-05-19T21:55:50.850Z,49.73
2023-05-19T21:58:18.252Z,49.40
2023-05-19T22:00:51.529Z,48.98
2023-05-19T22:03:18.440Z,48.72
2023-05-19T22:05:51.547Z,49.03
2023-05-19T22:08:18.907Z,48.87
2023-05-19T22:10:51.377Z,49.43
2023-05-19T22:13:18.978Z,49.55
2023-05-19T22:15:45.697Z,49.70
2023-05-19T22:18:12.877Z,50.40
2023-05-19T22:20:39.925Z,50.62
2023-05-19T22:23:06.708Z,50.17
2023-05-19T22:25:33.340Z,50.34
2023-05-19T22:28:01.305Z,50.80
2023-05-19T22:30:27.951Z,51.47
2023-05-19T22:32:54.642Z,50.87
2023-05-19T22:35:21.444Z,50.93
2023-05-19T22:37:48.096Z,50.70
2023-05-19T22:40:14.736Z,50.22
2023-05-19T22:42:43.451Z,50.71
2023-05-19T22:45:10.193Z,50.34
2023-05-19T22:47:36.903Z,50.95
2023-05-19T22:50:04.072Z,51.79
2023-05-19T22:52:30.743Z,51.72
2023-05-19T22:54:57.329Z,50.52
2023-05-19T22:57:23.990Z,52.54
2023-05-19T22:59:50.660Z,51.95
2023-05-19T23:02:17.466Z,52.02
2023-05-19T23:04:44.067Z,52.25
2023-05-19T23:07:10.677Z,52.15
2023-05-19T23:09:37.254Z,52.31
2023-05-19T23:12:04.027Z,52.82
2023-05-19T23:14:31.629Z,52.55
2023-05-19T23:16:58.316Z,52.22
2023-05-19T23:19:25.097Z,52.07
2023-05-19T23:21:51.812Z,52.85
2023-05-19T23:24:18.373Z,52.73
2023-05-19T23:26:45.094Z,53.60
2023-05-19T23:29:13.050Z,53.18
2023-05-19T23:31:40.990Z,52.94
2023-05-19T23:34:07.786Z,53.01
2023-05-19T23:36:34.422Z,52.24
2023-05-19T23:39:01.251Z,54.46
2023-05-19T23:41:28.232Z,53.88
2023-05-19T23:43:54.801Z,54.62
2023-05-19T23:46:21.490Z,53.56
2023-05-19T23:48:48.176Z,53.99
2023-05-19T23:51:14.842Z,54.49
2023-05-19T23:53:43.304Z,53.94
2023-05-19T23:56:10.599Z,55.17
2023-05-19T23:58:37.168Z,56.37
